createdAt,value
2022-09-22T00:01:23.080Z,2.10
2022-09-22T00:03:52.071Z,2.00
2022-09-22T00:06:20.363Z,1.80
2022-09-22T00:08:48.599Z,2.13
2022-09-22T00:11:18.582Z,2.00
2022-09-22T00:13:46.733Z,2.27
2022-09-22T00:16:14.803Z,2.20
2022-09-22T00:18:42.696Z,2.27
2022-09-22T00:21:12.291Z,2.00
2022-09-22T00:23:40.336Z,2.20
2022-09-22T00:26:10.398Z,2.33
2022-09-22T00:28:41.480Z,2.10
2022-09-22T00:31:09.357Z,2.33
2022-09-22T00:33:37.959Z,2.10
2022-09-22T00:36:05.552Z,2.03
2022-09-22T00:38:33.332Z,2.00
2022-09-22T00:41:01.261Z,2.40
2022-09-22T00:43:30.070Z,2.30
2022-09-22T00:46:00.279Z,2.20
2022-09-22T00:48:29.869Z,2.40
2022-09-22T00:50:58.532Z,2.43
2022-09-22T00:53:26.542Z,2.43
2022-09-22T00:55:55.296Z,2.10
2022-09-22T00:58:24.203Z,2.40
2022-09-22T01:00:51.638Z,2.37
2022-09-22T01:03:24.052Z,2.40
2022-09-22T01:05:56.770Z,2.67
2022-09-22T01:08:24.842Z,2.20
2022-09-22T01:10:53.074Z,2.30
2022-09-22T01:13:24.950Z,2.47
2022-09-22T01:15:57.074Z,2.10
2022-09-22T01:18:29.360Z,2.00
2022-09-22T01:21:14.659Z,2.30
2022-09-22T01:24:08.829Z,2.20
2022-09-22T01:26:50.724Z,2.40
2022-09-22T01:29:42.243Z,2.20
2022-09-22T01:32:17.105Z,2.40
2022-09-22T01:34:46.731Z,2.40
2022-09-22T01:37:17.661Z,2.40
2022-09-22T01:39:46.829Z,2.23
2022-09-22T01:42:16.395Z,2.53
2022-09-22T01:44:45.972Z,2.43
2022-09-22T01:47:15.879Z,2.23
2022-09-22T01:49:45.168Z,2.30
2022-09-22T01:52:14.740Z,2.07
2022-09-22T01:54:45.322Z,2.23
2022-09-22T01:57:13.975Z,2.27
2022-09-22T01:59:43.120Z,2.37
2022-09-22T02:02:15.638Z,2.20
2022-09-22T02:04:46.128Z,2.43
2022-09-22T02:07:15.419Z,2.57
2022-09-22T02:09:43.191Z,2.60
2022-09-22T02:12:10.590Z,2.63
2022-09-22T02:14:38.078Z,3.27
2022-09-22T02:17:05.679Z,2.90
2022-09-22T02:19:34.955Z,2.53
2022-09-22T02:22:04.931Z,2.60
2022-09-22T02:24:33.480Z,2.43
2022-09-22T02:27:03.138Z,2.17
2022-09-22T02:29:31.799Z,2.50
2022-09-22T02:31:59.869Z,2.70
2022-09-22T02:34:28.475Z,2.57
2022-09-22T02:36:58.353Z,2.40
2022-09-22T02:39:28.718Z,3.00
2022-09-22T02:42:11.375Z,2.50
2022-09-22T02:44:43.836Z,2.57
2022-09-22T02:47:14.186Z,2.93
2022-09-22T02:49:42.580Z,3.03
2022-09-22T02:52:11.737Z,2.83
2022-09-22T02:54:40.704Z,2.50
2022-09-22T02:57:08.451Z,2.57
2022-09-22T02:59:35.880Z,2.67
2022-09-22T03:02:03.419Z,2.70
2022-09-22T03:04:31.167Z,2.70
2022-09-22T03:06:58.655Z,2.77
2022-09-22T03:09:26.056Z,2.57
2022-09-22T03:11:54.851Z,2.60
2022-09-22T03:14:22.366Z,2.50
2022-09-22T03:16:49.818Z,2.57
2022-09-22T03:19:17.227Z,2.50
2022-09-22T03:21:44.846Z,2.37
2022-09-22T03:24:12.217Z,2.10
2022-09-22T03:26:39.599Z,2.10
2022-09-22T03:29:08.605Z,2.43
2022-09-22T03:31:36.017Z,2.33
2022-09-22T03:34:03.435Z,2.70
2022-09-22T03:36:30.851Z,2.33
2022-09-22T03:38:59.325Z,3.00
2022-09-22T03:41:26.818Z,2.60
2022-09-22T03:43:54.206Z,3.00
2022-09-22T03:46:22.946Z,2.30
2022-09-22T03:48:50.477Z,2.70
2022-09-22T03:51:19.206Z,2.17
2022-09-22T03:53:46.611Z,2.20
2022-09-22T03:56:15.150Z,2.30
2022-09-22T03:58:43.082Z,2.10
2022-09-22T04:01:11.260Z,2.27
2022-09-22T04:03:40.999Z,2.10
2022-09-22T04:06:08.634Z,2.30
2022-09-22T04:08:36.364Z,2.03
2022-09-22T04:11:03.789Z,2.37
2022-09-22T04:13:31.200Z,2.10
2022-09-22T04:15:58.603Z,2.00
2022-09-22T04:18:26.489Z,2.10
2022-09-22T04:20:59.002Z,2.60
2022-09-22T04:23:26.788Z,3.03
2022-09-22T04:25:54.266Z,2.63
2022-09-22T04:28:21.682Z,2.33
2022-09-22T04:30:49.323Z,1.93
2022-09-22T04:33:16.986Z,2.23
2022-09-22T04:35:44.508Z,1.90
2022-09-22T04:38:14.647Z,2.00
2022-09-22T04:40:42.255Z,1.87
2022-09-22T04:43:09.731Z,2.00
2022-09-22T04:45:39.705Z,2.30
2022-09-22T04:48:07.415Z,2.00
2022-09-22T04:50:34.977Z,2.20
2022-09-22T04:53:02.799Z,2.20
2022-09-22T04:55:31.549Z,2.20
2022-09-22T04:57:58.930Z,1.90
2022-09-22T05:00:27.314Z,2.10
2022-09-22T05:02:54.806Z,2.40
2022-09-22T05:05:24.627Z,2.10
2022-09-22T05:07:54.002Z,2.10
2022-09-22T05:10:24.114Z,2.10
2022-09-22T05:12:53.620Z,1.77
2022-09-22T05:15:21.248Z,2.00
2022-09-22T05:17:49.210Z,1.83
2022-09-22T05:20:16.708Z,2.03
2022-09-22T05:22:44.161Z,2.53
2022-09-22T05:25:12.410Z,1.80
2022-09-22T05:27:43.520Z,2.13
2022-09-22T05:30:12.976Z,2.40
2022-09-22T05:32:42.797Z,2.10
2022-09-22T05:35:10.548Z,2.20
2022-09-22T05:37:37.990Z,2.10
2022-09-22T05:40:07.097Z,2.50
2022-09-22T05:42:34.694Z,2.07
2022-09-22T05:45:02.100Z,2.80
2022-09-22T05:47:30.846Z,2.23
2022-09-22T05:49:58.192Z,2.10
2022-09-22T05:52:25.598Z,2.40
2022-09-22T05:54:53.010Z,2.30
2022-09-22T05:57:22.066Z,2.33
2022-09-22T05:59:49.615Z,2.10
2022-09-22T06:02:25.638Z,1.87
2022-09-22T06:04:55.017Z,2.10
2022-09-22T06:07:24.054Z,1.70
2022-09-22T06:09:51.787Z,1.77
2022-09-22T06:12:19.278Z,2.07
2022-09-22T06:14:46.697Z,2.10
2022-09-22T06:17:14.279Z,1.87
2022-09-22T06:19:43.102Z,2.03
2022-09-22T06:22:11.801Z,2.10
2022-09-22T06:24:39.245Z,1.77
2022-09-22T06:27:06.894Z,1.90
2022-09-22T06:29:34.250Z,2.00
2022-09-22T06:32:01.973Z,2.10
2022-09-22T06:34:29.413Z,1.90
2022-09-22T06:36:57.100Z,2.13
2022-09-22T06:39:25.840Z,2.10
2022-09-22T06:41:53.187Z,1.70
2022-09-22T06:44:21.238Z,2.47
2022-09-22T06:46:48.619Z,2.13
2022-09-22T06:49:15.992Z,2.20
2022-09-22T06:51:43.635Z,2.93
2022-09-22T06:54:11.029Z,3.00
2022-09-22T06:56:43.634Z,3.00
2022-09-22T06:59:14.316Z,2.60
2022-09-22T07:01:42.745Z,2.80
2022-09-22T07:04:10.510Z,2.37
2022-09-22T07:06:39.535Z,2.90
2022-09-22T07:09:09.154Z,2.33
2022-09-22T07:11:40.077Z,2.47
2022-09-22T07:14:11.506Z,2.27
2022-09-22T07:16:39.888Z,3.30
2022-09-22T07:19:08.094Z,3.00
2022-09-22T07:21:37.694Z,2.90
2022-09-22T07:24:08.074Z,2.70
2022-09-22T07:26:36.802Z,3.17
2022-09-22T07:29:07.717Z,2.50
2022-09-22T07:31:36.993Z,2.90
2022-09-22T07:34:04.882Z,2.53
2022-09-22T07:36:33.051Z,2.33
2022-09-22T07:39:03.571Z,2.33
2022-09-22T07:41:31.769Z,3.00
2022-09-22T07:44:20.592Z,2.60
2022-09-22T07:46:49.400Z,2.50
2022-09-22T07:49:17.615Z,2.90
2022-09-22T07:51:44.982Z,3.00
2022-09-22T07:54:12.555Z,2.70
2022-09-22T07:56:41.020Z,2.73
2022-09-22T07:59:10.820Z,2.63
2022-09-22T08:01:39.613Z,2.57
2022-09-22T08:04:16.653Z,2.63
2022-09-22T08:06:44.682Z,2.10
2022-09-22T08:09:12.615Z,2.50
2022-09-22T08:11:40.406Z,2.10
2022-09-22T08:14:09.127Z,3.27
2022-09-22T08:16:38.287Z,2.47
2022-09-22T08:19:10.555Z,2.07
2022-09-22T08:21:48.060Z,1.90
2022-09-22T08:24:21.050Z,2.23
2022-09-22T08:26:50.055Z,1.97
2022-09-22T08:29:17.534Z,2.33
2022-09-22T08:31:46.820Z,2.07
2022-09-22T08:34:14.956Z,1.97
2022-09-22T08:36:47.358Z,2.00
2022-09-22T08:39:15.857Z,2.10
2022-09-22T08:41:47.236Z,2.47
2022-09-22T08:44:18.795Z,2.40
2022-09-22T08:46:47.352Z,1.80
2022-09-22T08:49:35.633Z,1.97
2022-09-22T08:52:06.166Z,2.10
2022-09-22T08:54:35.295Z,2.03
2022-09-22T08:57:16.547Z,2.10
2022-09-22T08:59:46.914Z,1.83
2022-09-22T09:02:29.213Z,2.10
2022-09-22T09:05:15.467Z,1.83
2022-09-22T09:07:47.847Z,1.90
2022-09-22T09:10:28.246Z,1.87
2022-09-22T09:13:03.753Z,1.50
2022-09-22T09:15:41.499Z,1.60
2022-09-22T09:18:13.509Z,1.60
2022-09-22T09:20:42.152Z,2.00
2022-09-22T09:23:13.552Z,1.87
2022-09-22T09:25:41.665Z,1.53
2022-09-22T09:28:21.977Z,1.43
2022-09-22T09:30:52.784Z,1.67
2022-09-22T09:33:25.020Z,1.80
2022-09-22T09:35:53.578Z,1.30
2022-09-22T09:38:27.026Z,1.63
2022-09-22T09:40:56.658Z,1.50
2022-09-22T09:43:24.876Z,1.40
2022-09-22T09:45:58.156Z,1.60
2022-09-22T09:48:31.060Z,1.70
2022-09-22T09:51:02.281Z,1.60
2022-09-22T09:53:34.437Z,1.60
2022-09-22T09:56:02.034Z,1.50
2022-09-22T09:58:46.932Z,1.30
2022-09-22T10:01:14.920Z,1.33
2022-09-22T10:03:44.435Z,1.70
2022-09-22T10:06:11.954Z,1.30
2022-09-22T10:08:44.994Z,1.30
2022-09-22T10:11:14.952Z,1.77
2022-09-22T10:13:43.502Z,1.27
2022-09-22T10:16:21.724Z,1.50
2022-09-22T10:18:49.942Z,1.40
2022-09-22T10:21:18.501Z,1.63
2022-09-22T10:23:48.417Z,1.20
2022-09-22T10:26:17.725Z,1.37
2022-09-22T10:28:50.283Z,1.50
2022-09-22T10:31:21.756Z,1.43
2022-09-22T10:33:56.174Z,1.40
2022-09-22T10:36:25.906Z,1.30
2022-09-22T10:38:58.890Z,1.57
2022-09-22T10:41:31.264Z,1.37
2022-09-22T10:44:03.182Z,1.40
2022-09-22T10:46:52.260Z,1.40
2022-09-22T10:49:28.835Z,1.40
2022-09-22T10:52:02.366Z,1.60
2022-09-22T10:54:41.770Z,1.20
2022-09-22T10:57:18.049Z,1.67
2022-09-22T10:59:52.906Z,1.33
2022-09-22T11:02:28.434Z,1.43
2022-09-22T11:05:00.146Z,1.50
2022-09-22T11:07:55.529Z,1.87
2022-09-22T11:10:46.963Z,1.60
2022-09-22T11:13:19.426Z,1.90
2022-09-22T11:16:05.783Z,1.93
2022-09-22T11:18:42.996Z,1.40
2022-09-22T11:21:16.288Z,1.40
2022-09-22T11:23:49.815Z,1.27
2022-09-22T11:26:33.351Z,1.30
2022-09-22T11:29:10.474Z,1.47
2022-09-22T11:31:42.804Z,1.47
2022-09-22T11:34:23.140Z,1.60
2022-09-22T11:36:52.062Z,1.43
2022-09-22T11:39:28.656Z,1.47
2022-09-22T11:42:02.371Z,1.40
2022-09-22T11:44:36.803Z,1.63
2022-09-22T11:47:11.886Z,1.50
2022-09-22T11:49:46.075Z,1.60
2022-09-22T11:52:20.945Z,1.33
2022-09-22T11:55:04.755Z,1.70
2022-09-22T11:57:36.101Z,1.40
2022-09-22T12:00:07.104Z,1.53
2022-09-22T12:02:38.443Z,1.53
2022-09-22T12:05:08.430Z,1.47
2022-09-22T12:07:41.996Z,1.70
2022-09-22T12:10:15.662Z,1.20
2022-09-22T12:12:48.470Z,1.30
2022-09-22T12:15:21.562Z,1.43
2022-09-22T12:17:52.867Z,1.60
2022-09-22T12:20:28.773Z,1.33
2022-09-22T12:23:06.414Z,1.30
2022-09-22T12:25:48.693Z,1.60
2022-09-22T12:28:18.698Z,1.40
2022-09-22T12:30:53.679Z,1.20
2022-09-22T12:33:22.895Z,1.57
2022-09-22T12:35:54.047Z,1.30
2022-09-22T12:38:21.866Z,1.30
2022-09-22T12:40:50.204Z,1.40
2022-09-22T12:43:21.289Z,1.23
2022-09-22T12:45:50.204Z,1.30
2022-09-22T12:48:18.554Z,0.93
2022-09-22T12:50:46.501Z,1.20
2022-09-22T12:53:25.169Z,1.20
2022-09-22T12:55:53.070Z,1.10
2022-09-22T12:58:41.529Z,1.33
2022-09-22T13:01:27.763Z,1.50
2022-09-22T13:04:04.154Z,1.40
2022-09-22T13:06:50.314Z,1.30
2022-09-22T13:09:22.619Z,1.00
2022-09-22T13:12:08.819Z,1.30
2022-09-22T13:15:09.185Z,1.53
2022-09-22T13:17:42.473Z,1.40
2022-09-22T13:20:16.052Z,1.80
2022-09-22T13:22:44.441Z,1.47
2022-09-22T13:25:15.662Z,1.20
2022-09-22T13:27:43.081Z,1.20
2022-09-22T13:30:13.666Z,1.10
2022-09-22T13:32:48.130Z,1.30
2022-09-22T13:35:25.023Z,1.20
2022-09-22T13:37:53.207Z,1.20
2022-09-22T13:40:21.613Z,1.03
2022-09-22T13:42:50.102Z,1.47
2022-09-22T13:45:18.996Z,1.00
2022-09-22T13:47:48.567Z,1.20
2022-09-22T13:50:20.085Z,1.30
2022-09-22T13:52:51.138Z,1.10
2022-09-22T13:55:22.343Z,1.10
2022-09-22T13:57:49.963Z,1.03
2022-09-22T14:00:21.192Z,0.90
2022-09-22T14:02:50.072Z,1.10
2022-09-22T14:05:18.754Z,1.30
2022-09-22T14:08:07.931Z,1.30
2022-09-22T14:10:34.450Z,1.30
2022-09-22T14:13:01.946Z,1.03
2022-09-22T14:15:43.609Z,1.07
2022-09-22T14:18:16.955Z,0.97
2022-09-22T14:20:45.250Z,1.10
2022-09-22T14:23:15.210Z,0.97
2022-09-22T14:25:42.846Z,1.10
2022-09-22T14:28:16.477Z,1.20
2022-09-22T14:30:43.865Z,1.00
2022-09-22T14:33:17.265Z,1.10
2022-09-22T14:35:44.783Z,1.00
2022-09-22T14:38:19.761Z,1.60
2022-09-22T14:40:51.425Z,1.20
2022-09-22T14:43:23.859Z,1.10
2022-09-22T14:45:57.802Z,1.00
2022-09-22T14:48:30.254Z,1.13
2022-09-22T14:50:59.286Z,1.53
2022-09-22T14:53:28.490Z,1.10
2022-09-22T14:56:00.255Z,1.40
2022-09-22T14:58:30.038Z,1.33
2022-09-22T15:01:13.225Z,1.10
2022-09-22T15:03:42.767Z,1.57
2022-09-22T15:06:11.432Z,1.30
2022-09-22T15:08:39.119Z,1.43
2022-09-22T15:11:07.043Z,1.40
2022-09-22T15:13:41.103Z,1.20
2022-09-22T15:16:23.443Z,1.10
2022-09-22T15:18:52.181Z,1.50
2022-09-22T15:21:19.600Z,1.17
2022-09-22T15:23:47.911Z,1.20
2022-09-22T15:26:16.779Z,1.30
2022-09-22T15:28:47.508Z,1.40
2022-09-22T15:31:16.987Z,1.20
2022-09-22T15:33:44.395Z,1.10
2022-09-22T15:36:15.685Z,1.30
2022-09-22T15:38:43.339Z,1.43
2022-09-22T15:41:11.779Z,1.10
2022-09-22T15:43:40.050Z,1.43
2022-09-22T15:46:09.122Z,1.37
2022-09-22T15:48:37.950Z,1.20
2022-09-22T15:51:06.541Z,1.50
2022-09-22T15:53:35.784Z,1.10
2022-09-22T15:56:04.951Z,1.27
2022-09-22T15:58:34.607Z,1.33
2022-09-22T16:01:02.203Z,1.30
2022-09-22T16:03:30.695Z,1.50
2022-09-22T16:05:59.469Z,1.53
2022-09-22T16:08:28.676Z,1.10
2022-09-22T16:10:57.936Z,1.50
2022-09-22T16:13:26.866Z,1.50
2022-09-22T16:15:54.813Z,1.33
2022-09-22T16:18:22.564Z,1.60
2022-09-22T16:20:51.825Z,1.50
2022-09-22T16:23:19.531Z,1.37
2022-09-22T16:25:46.894Z,1.50
2022-09-22T16:28:15.592Z,1.13
2022-09-22T16:30:42.991Z,2.17
2022-09-22T16:33:10.353Z,1.80
2022-09-22T16:35:38.134Z,1.70
2022-09-22T16:38:05.591Z,1.67
2022-09-22T16:40:33.015Z,1.40
2022-09-22T16:43:00.450Z,1.40
2022-09-22T16:45:46.579Z,1.33
2022-09-22T16:48:14.255Z,1.60
2022-09-22T16:50:43.356Z,1.50
2022-09-22T16:53:11.085Z,1.40
2022-09-22T16:55:38.423Z,1.30
2022-09-22T16:58:07.236Z,1.43
2022-09-22T17:00:36.464Z,1.37
2022-09-22T17:03:03.837Z,1.23
2022-09-22T17:05:32.731Z,1.37
2022-09-22T17:08:05.903Z,1.50
2022-09-22T17:10:35.796Z,1.30
2022-09-22T17:13:04.857Z,1.50
2022-09-22T17:15:36.009Z,1.47
2022-09-22T17:18:05.283Z,1.43
2022-09-22T17:20:32.690Z,1.50
2022-09-22T17:23:00.053Z,1.50
2022-09-22T17:25:29.249Z,1.33
2022-09-22T17:27:57.262Z,1.30
2022-09-22T17:30:24.889Z,1.50
2022-09-22T17:32:53.045Z,1.40
2022-09-22T17:35:21.843Z,1.43
2022-09-22T17:37:51.728Z,1.43
2022-09-22T17:40:19.185Z,1.30
2022-09-22T17:42:47.631Z,1.40
2022-09-22T17:45:15.110Z,1.47
2022-09-22T17:48:00.307Z,1.53
2022-09-22T17:50:46.623Z,1.43
2022-09-22T17:53:45.889Z,1.50
2022-09-22T17:56:13.278Z,1.60
2022-09-22T17:58:40.617Z,1.63
2022-09-22T18:01:08.012Z,1.40
2022-09-22T18:03:35.450Z,1.53
2022-09-22T18:06:06.958Z,1.53
2022-09-22T18:08:34.302Z,1.30
2022-09-22T18:11:01.720Z,1.53
2022-09-22T18:13:29.072Z,1.40
2022-09-22T18:15:56.626Z,1.60
2022-09-22T18:18:24.033Z,1.80
2022-09-22T18:20:52.026Z,1.43
2022-09-22T18:23:20.792Z,1.50
2022-09-22T18:25:51.125Z,1.93
2022-09-22T18:28:23.558Z,1.80
2022-09-22T18:30:51.049Z,1.60
2022-09-22T18:33:18.499Z,1.80
2022-09-22T18:35:47.384Z,1.83
2022-09-22T18:38:14.911Z,1.80
2022-09-22T18:40:43.684Z,1.70
2022-09-22T18:43:11.241Z,1.70
2022-09-22T18:45:38.810Z,1.97
2022-09-22T18:48:07.119Z,1.90
2022-09-22T18:50:34.676Z,1.60
2022-09-22T18:53:02.666Z,1.80
2022-09-22T18:55:32.473Z,2.10
2022-09-22T18:58:01.355Z,1.83
2022-09-22T19:00:28.891Z,1.70
2022-09-22T19:02:56.542Z,1.90
2022-09-22T19:05:24.205Z,1.90
2022-09-22T19:07:52.025Z,2.30
2022-09-22T19:10:20.453Z,1.83
2022-09-22T19:12:48.042Z,1.73
2022-09-22T19:15:18.658Z,2.20
2022-09-22T19:17:47.272Z,2.10
2022-09-22T19:20:15.666Z,2.00
2022-09-22T19:22:43.299Z,1.93
2022-09-22T19:25:11.746Z,2.30
2022-09-22T19:27:39.593Z,2.00
2022-09-22T19:30:07.703Z,2.20
2022-09-22T19:32:36.683Z,2.63
2022-09-22T19:35:04.348Z,2.13
2022-09-22T19:37:31.716Z,2.37
2022-09-22T19:39:59.195Z,2.47
2022-09-22T19:42:28.410Z,2.40
2022-09-22T19:44:55.788Z,2.00
2022-09-22T19:47:23.758Z,2.13
2022-09-22T19:49:52.572Z,2.57
2022-09-22T19:52:19.918Z,2.40
2022-09-22T19:54:47.699Z,2.10
2022-09-22T19:57:15.288Z,2.13
2022-09-22T19:59:42.966Z,2.33
2022-09-22T20:02:12.450Z,2.23
2022-09-22T20:04:39.986Z,2.27
2022-09-22T20:07:10.705Z,2.00
2022-09-22T20:09:38.263Z,2.40
2022-09-22T20:12:06.133Z,2.20
2022-09-22T20:14:34.357Z,2.17
2022-09-22T20:17:03.241Z,2.60
2022-09-22T20:19:32.330Z,2.20
2022-09-22T20:22:16.821Z,2.30
2022-09-22T20:24:44.350Z,2.40
2022-09-22T20:27:11.723Z,2.17
2022-09-22T20:29:39.110Z,2.50
2022-09-22T20:32:06.872Z,2.47
2022-09-22T20:34:34.324Z,2.30
2022-09-22T20:37:01.733Z,2.50
2022-09-22T20:39:30.452Z,2.27
2022-09-22T20:41:57.838Z,2.37
2022-09-22T20:44:25.291Z,2.20
2022-09-22T20:46:52.687Z,2.70
2022-09-22T20:49:20.396Z,2.50
2022-09-22T20:51:48.367Z,2.43
2022-09-22T20:54:16.035Z,2.50
2022-09-22T20:56:45.146Z,2.60
2022-09-22T20:59:12.549Z,2.70
2022-09-22T21:01:40.151Z,2.90
2022-09-22T21:04:07.883Z,2.43
2022-09-22T21:06:35.324Z,2.70
2022-09-22T21:09:20.494Z,2.60
2022-09-22T21:11:49.237Z,2.30
2022-09-22T21:14:16.694Z,2.30
2022-09-22T21:16:44.719Z,2.10
2022-09-22T21:19:12.590Z,2.33
2022-09-22T21:21:40.058Z,2.57
2022-09-22T21:24:08.155Z,2.53
2022-09-22T21:26:35.560Z,2.40
2022-09-22T21:29:04.870Z,2.30
2022-09-22T21:31:33.594Z,2.80
2022-09-22T21:34:01.122Z,2.43
2022-09-22T21:36:28.560Z,2.50
2022-09-22T21:38:56.543Z,2.50
2022-09-22T21:41:24.786Z,2.57
2022-09-22T21:43:52.430Z,2.43
2022-09-22T21:46:22.014Z,2.53
2022-09-22T21:48:49.720Z,2.40
2022-09-22T21:51:19.315Z,2.13
2022-09-22T21:53:47.945Z,2.47
2022-09-22T21:56:16.372Z,2.27
2022-09-22T21:58:44.898Z,2.10
2022-09-22T22:01:14.390Z,2.50
2022-09-22T22:03:43.694Z,2.50
2022-09-22T22:06:12.338Z,2.10
2022-09-22T22:08:40.833Z,2.27
2022-09-22T22:11:09.654Z,2.20
2022-09-22T22:13:38.025Z,2.00
2022-09-22T22:16:07.372Z,2.23
2022-09-22T22:18:34.962Z,2.27
2022-09-22T22:21:04.573Z,2.10
2022-09-22T22:23:33.152Z,2.37
2022-09-22T22:26:02.090Z,2.53
2022-09-22T22:28:30.187Z,2.47
2022-09-22T22:30:57.755Z,2.17
2022-09-22T22:33:25.304Z,2.20
2022-09-22T22:35:53.539Z,2.27
2022-09-22T22:38:23.278Z,2.93
2022-09-22T22:40:50.861Z,2.40
2022-09-22T22:43:18.951Z,2.53
2022-09-22T22:45:46.904Z,2.30
2022-09-22T22:48:15.142Z,2.00
2022-09-22T22:50:43.135Z,2.17
2022-09-22T22:53:12.179Z,2.30
2022-09-22T22:55:42.316Z,2.10
2022-09-22T22:58:10.354Z,2.03
2022-09-22T23:00:40.054Z,2.00
2022-09-22T23:03:07.467Z,1.90
2022-09-22T23:05:37.407Z,2.00
2022-09-22T23:08:09.080Z,2.40
2022-09-22T23:10:36.466Z,2.40
2022-09-22T23:13:05.464Z,2.40
2022-09-22T23:15:33.128Z,2.30
2022-09-22T23:18:00.604Z,1.87
2022-09-22T23:20:28.023Z,1.90
2022-09-22T23:22:55.485Z,2.30
2022-09-22T23:25:23.599Z,2.37
2022-09-22T23:27:51.282Z,1.97
2022-09-22T23:30:20.006Z,2.40
2022-09-22T23:32:47.435Z,2.10
2022-09-22T23:35:14.912Z,2.37
2022-09-22T23:37:42.369Z,2.50
2022-09-22T23:40:10.695Z,2.40
2022-09-22T23:42:38.334Z,2.20
2022-09-22T23:45:06.263Z,2.00
2022-09-22T23:47:36.351Z,2.63
2022-09-22T23:50:03.825Z,2.30
2022-09-22T23:52:31.371Z,2.60
2022-09-22T23:54:58.862Z,2.40
2022-09-22T23:57:26.348Z,2.53
2022-09-22T23:59:53.779Z,2.30
